CheckWX is a tool to help pilots better visualize weather data.  It is not intended as a substitute for an official pre-flight weather briefing.

02:47:24 UTC

LFPG METAR
Charles de Gaulle International Airport
Paris, France
Current

47 mins ago

LFPG 230200Z 02009KT 2500 BR NSC 07/05 Q1028 BECMG 0400 FG VV///
Observed
Mar-23 @ 02:00 UTC
Wind
  • 020° at 9 KTS
Visibility
2,494 meters
Flight Rules
IFR
Conditions
Mist
Cloud Levels
  • Clear skies
Temperature
C / 45°F
Dewpoint
C / 41°F
Humidity
87%
Altimeter
30.35" Hg
Pressure
1027.92 hPa
Previous

1 hour ago

LFPG 230130Z 01008KT 360V120 4000 BR NSC 07/05 Q1028 BECMG 0400 FG VV///
Observed
Mar-23 @ 01:30 UTC
Wind
  • 010° at 8 KTS
Visibility
4,007 meters
Flight Rules
IFR
Conditions
Mist
Cloud Levels
  • Clear skies
Temperature
C / 45°F
Dewpoint
C / 41°F
Humidity
87%
Altimeter
30.35" Hg
Pressure
1027.92 hPa
Previous

2 hours ago

LFPG 230100Z 01007KT 6000 NSC 07/05 Q1028 TEMPO 3000 BR
Observed
Mar-23 @ 01:00 UTC
Wind
  • 010° at 7 KTS
Visibility
6,003 meters
Flight Rules
MVFR
Cloud Levels
  • Clear skies
Temperature
C / 45°F
Dewpoint
C / 41°F
Humidity
87%
Altimeter
30.35" Hg
Pressure
1027.92 hPa